createdAt,value
2022-10-15T00:01:39.138Z,10.61
2022-10-15T00:04:07.818Z,10.45
2022-10-15T00:06:36.580Z,10.45
2022-10-15T00:09:05.419Z,10.65
2022-10-15T00:11:34.113Z,10.79
2022-10-15T00:14:02.745Z,10.95
2022-10-15T00:16:31.495Z,10.90
2022-10-15T00:19:00.837Z,10.71
2022-10-15T00:21:29.680Z,10.63
2022-10-15T00:23:58.621Z,10.62
2022-10-15T00:26:28.919Z,10.59
2022-10-15T00:29:00.729Z,10.59
2022-10-15T00:31:31.948Z,10.57
2022-10-15T00:34:02.280Z,10.48
2022-10-15T00:36:32.800Z,10.50
2022-10-15T00:39:03.122Z,10.60
2022-10-15T00:41:34.199Z,10.62
2022-10-15T00:44:23.668Z,10.69
2022-10-15T00:46:54.792Z,10.71
2022-10-15T00:49:28.174Z,10.57
2022-10-15T00:52:01.186Z,10.54
2022-10-15T00:54:34.241Z,10.52
2022-10-15T00:57:04.861Z,10.47
2022-10-15T00:59:37.016Z,10.44
2022-10-15T01:02:07.270Z,10.21
2022-10-15T01:04:36.940Z,10.15
2022-10-15T01:07:06.288Z,10.16
2022-10-15T01:09:36.493Z,10.13
2022-10-15T01:12:09.914Z,10.13
2022-10-15T01:14:49.855Z,10.10
2022-10-15T01:17:26.459Z,10.15
2022-10-15T01:20:25.353Z,10.19
2022-10-15T01:23:14.476Z,10.21
2022-10-15T01:25:56.162Z,10.17
2022-10-15T01:28:39.720Z,10.17
2022-10-15T01:31:19.607Z,10.12
2022-10-15T01:33:59.111Z,10.01
2022-10-15T01:36:37.409Z,10.13
2022-10-15T01:39:12.902Z,10.04
2022-10-15T01:41:45.332Z,10.04
2022-10-15T01:44:17.950Z,10.02
2022-10-15T01:46:50.932Z,9.99
2022-10-15T01:49:25.675Z,10.03
2022-10-15T01:51:54.582Z,9.99
2022-10-15T01:54:27.474Z,9.97
2022-10-15T01:56:58.282Z,9.90
2022-10-15T01:59:30.363Z,9.91
2022-10-15T02:01:59.576Z,9.97
2022-10-15T02:04:29.817Z,10.04
2022-10-15T02:07:02.545Z,10.02
2022-10-15T02:09:42.622Z,10.10
2022-10-15T02:12:22.650Z,10.17
2022-10-15T02:14:59.423Z,10.12
2022-10-15T02:17:36.190Z,10.04
2022-10-15T02:20:12.526Z,10.13
2022-10-15T02:22:48.702Z,10.22
2022-10-15T02:25:22.411Z,10.26
2022-10-15T02:27:54.647Z,10.12
2022-10-15T02:30:24.418Z,10.04
2022-10-15T02:32:55.063Z,10.10
2022-10-15T02:35:25.750Z,10.18
2022-10-15T02:37:57.451Z,10.02
2022-10-15T02:40:29.809Z,9.98
2022-10-15T02:42:59.802Z,10.07
2022-10-15T02:45:28.520Z,10.20
2022-10-15T02:47:57.485Z,10.20
2022-10-15T02:50:26.360Z,10.26
2022-10-15T02:52:55.045Z,10.33
2022-10-15T02:55:23.749Z,10.36
2022-10-15T02:57:52.296Z,10.50
2022-10-15T03:00:22.458Z,10.53
2022-10-15T03:02:51.195Z,10.37
2022-10-15T03:05:20.297Z,10.42
2022-10-15T03:07:48.965Z,10.51
2022-10-15T03:10:17.850Z,10.47
2022-10-15T03:12:46.405Z,10.54
2022-10-15T03:15:15.044Z,10.55
2022-10-15T03:17:43.993Z,10.48
2022-10-15T03:20:12.870Z,10.52
2022-10-15T03:22:41.469Z,10.57
2022-10-15T03:25:18.762Z,10.60
2022-10-15T03:27:55.805Z,10.62
2022-10-15T03:30:32.287Z,10.71
2022-10-15T03:33:00.850Z,10.92
2022-10-15T03:35:29.391Z,10.96
2022-10-15T03:37:57.906Z,10.81
2022-10-15T03:40:26.833Z,10.63
2022-10-15T03:42:56.106Z,10.67
2022-10-15T03:45:25.193Z,10.78
2022-10-15T03:47:54.122Z,10.84
2022-10-15T03:50:23.624Z,10.92
2022-10-15T03:52:52.280Z,10.94
2022-10-15T03:55:21.963Z,10.94
2022-10-15T03:57:50.614Z,10.82
2022-10-15T04:00:19.585Z,10.84
2022-10-15T04:02:48.188Z,10.82
2022-10-15T04:05:16.979Z,10.92
2022-10-15T04:07:45.604Z,10.98
2022-10-15T04:10:14.949Z,10.86
2022-10-15T04:12:43.846Z,10.95
2022-10-15T04:15:12.575Z,11.10
2022-10-15T04:17:41.351Z,11.14
2022-10-15T04:20:12.285Z,11.13
2022-10-15T04:22:40.872Z,11.08
2022-10-15T04:25:10.466Z,11.22
2022-10-15T04:27:39.302Z,11.31
2022-10-15T04:30:10.020Z,11.30
2022-10-15T04:32:38.636Z,11.16
2022-10-15T04:35:08.333Z,11.14
2022-10-15T04:37:37.596Z,11.20
2022-10-15T04:40:08.648Z,11.35
2022-10-15T04:42:37.490Z,11.21
2022-10-15T04:45:08.426Z,11.11
2022-10-15T04:47:37.380Z,11.07
2022-10-15T04:50:07.249Z,11.04
2022-10-15T04:52:36.244Z,10.96
2022-10-15T04:55:06.200Z,10.97
2022-10-15T04:57:35.335Z,10.99
2022-10-15T05:00:05.676Z,10.92
2022-10-15T05:02:34.823Z,10.77
2022-10-15T05:05:03.722Z,10.85
2022-10-15T05:07:32.335Z,10.86
2022-10-15T05:10:01.033Z,10.82
2022-10-15T05:12:30.245Z,10.78
2022-10-15T05:14:59.414Z,10.65
2022-10-15T05:17:30.134Z,10.55
2022-10-15T05:19:59.023Z,10.46
2022-10-15T05:22:27.578Z,10.42
2022-10-15T05:24:56.786Z,10.49
2022-10-15T05:27:25.702Z,10.53
2022-10-15T05:29:54.581Z,10.46
2022-10-15T05:34:52.433Z,10.49
2022-10-15T05:37:21.584Z,10.61
2022-10-15T05:39:50.652Z,10.48
2022-10-15T05:42:20.054Z,10.38
2022-10-15T05:44:48.696Z,10.56
2022-10-15T05:47:17.340Z,10.90
2022-10-15T05:49:45.959Z,11.33
2022-10-15T05:52:14.508Z,11.73
2022-10-15T05:54:43.015Z,12.18
2022-10-15T05:57:11.716Z,12.63
2022-10-15T05:59:40.231Z,12.87
2022-10-15T06:02:15.604Z,13.03
2022-10-15T06:04:44.274Z,13.12
2022-10-15T06:07:12.967Z,13.06
2022-10-15T06:09:41.593Z,12.80
2022-10-15T06:12:10.353Z,12.69
2022-10-15T06:14:38.969Z,12.56
2022-10-15T06:17:07.628Z,12.37
2022-10-15T06:19:36.402Z,12.41
2022-10-15T06:22:05.179Z,12.34
2022-10-15T06:24:33.881Z,12.27
2022-10-15T06:27:02.820Z,12.23
2022-10-15T06:29:31.403Z,12.11
2022-10-15T06:32:01.645Z,12.09
2022-10-15T06:34:30.285Z,12.08
2022-10-15T06:36:58.904Z,12.06
2022-10-15T06:39:27.543Z,12.13
2022-10-15T06:41:56.906Z,12.29
2022-10-15T06:44:25.695Z,12.45
2022-10-15T06:46:54.265Z,12.45
2022-10-15T06:49:23.316Z,12.41
2022-10-15T06:51:52.153Z,12.48
2022-10-15T06:54:20.973Z,12.71
2022-10-15T06:56:49.547Z,12.81
2022-10-15T06:59:18.057Z,12.84
2022-10-15T07:01:46.620Z,12.82
2022-10-15T07:04:15.608Z,12.91
2022-10-15T07:06:44.579Z,13.00
2022-10-15T07:09:13.983Z,13.03
2022-10-15T07:11:42.888Z,13.12
2022-10-15T07:14:11.496Z,13.42
2022-10-15T07:16:40.199Z,13.82
2022-10-15T07:19:10.064Z,14.04
2022-10-15T07:21:39.172Z,14.35
2022-10-15T07:24:09.213Z,14.66
2022-10-15T07:26:38.451Z,14.77
2022-10-15T07:29:07.387Z,14.96
2022-10-15T07:31:36.852Z,15.33
2022-10-15T07:34:05.944Z,15.56
2022-10-15T07:36:34.566Z,15.83
2022-10-15T07:39:03.254Z,16.10
2022-10-15T07:41:34.358Z,16.15
2022-10-15T07:44:03.400Z,16.46
2022-10-15T07:46:32.431Z,16.67
2022-10-15T07:49:01.235Z,16.65
2022-10-15T07:51:29.839Z,16.79
2022-10-15T07:53:58.522Z,16.93
2022-10-15T07:56:27.314Z,16.95
2022-10-15T07:58:55.967Z,16.84
2022-10-15T08:01:25.074Z,16.84
2022-10-15T08:03:54.175Z,17.03
2022-10-15T08:06:23.461Z,17.10
2022-10-15T08:08:52.078Z,17.26
2022-10-15T08:11:20.629Z,17.33
2022-10-15T08:13:49.333Z,17.29
2022-10-15T08:16:19.236Z,17.22
2022-10-15T08:18:47.865Z,17.24
2022-10-15T08:21:16.530Z,17.19
2022-10-15T08:23:45.156Z,17.08
2022-10-15T08:26:13.873Z,16.94
2022-10-15T08:28:42.760Z,16.90
2022-10-15T08:31:11.584Z,17.02
2022-10-15T08:33:40.257Z,17.06
2022-10-15T08:36:10.028Z,16.95
2022-10-15T08:38:38.984Z,16.93
2022-10-15T08:41:20.117Z,17.04
2022-10-15T08:43:48.974Z,17.06
2022-10-15T08:46:22.851Z,16.91
2022-10-15T08:48:55.842Z,16.88
2022-10-15T08:51:28.924Z,16.89
2022-10-15T08:54:20.460Z,16.89
2022-10-15T08:57:09.956Z,16.92
2022-10-15T08:59:49.197Z,16.91
2022-10-15T09:02:22.961Z,16.96
2022-10-15T09:04:58.750Z,16.88
2022-10-15T09:07:35.949Z,16.95
2022-10-15T09:10:19.379Z,16.89
2022-10-15T09:12:56.130Z,16.81
2022-10-15T09:15:28.145Z,16.95
2022-10-15T09:17:57.394Z,17.12
2022-10-15T09:20:30.890Z,17.16
2022-10-15T09:22:59.855Z,17.15
2022-10-15T09:25:36.282Z,17.09
2022-10-15T09:28:11.220Z,17.05
2022-10-15T09:30:47.303Z,17.24
2022-10-15T09:33:27.687Z,17.26
2022-10-15T09:36:06.782Z,17.42
2022-10-15T09:38:42.076Z,17.71
2022-10-15T09:41:22.110Z,17.78
2022-10-15T09:43:53.201Z,17.91
2022-10-15T09:46:21.754Z,18.14
2022-10-15T09:49:03.902Z,18.17
2022-10-15T09:51:38.361Z,18.17
2022-10-15T09:54:17.908Z,18.22
2022-10-15T09:56:51.870Z,18.16
2022-10-15T09:59:22.853Z,18.04
2022-10-15T10:02:00.094Z,17.96
2022-10-15T10:04:30.337Z,18.02
2022-10-15T10:07:01.803Z,18.20
2022-10-15T10:09:33.711Z,18.30
2022-10-15T10:12:05.696Z,18.45
2022-10-15T10:14:36.261Z,18.45
2022-10-15T10:17:16.374Z,18.58
2022-10-15T10:19:46.520Z,18.58
2022-10-15T10:22:18.459Z,18.67
2022-10-15T10:24:47.850Z,18.74
2022-10-15T10:27:23.046Z,18.79
2022-10-15T10:29:57.217Z,18.80
2022-10-15T10:32:31.774Z,18.72
2022-10-15T10:35:02.658Z,18.74
2022-10-15T10:37:42.912Z,18.76
2022-10-15T10:40:25.054Z,18.75
2022-10-15T10:43:12.089Z,18.78
2022-10-15T10:45:52.234Z,18.80
2022-10-15T10:48:23.553Z,18.90
2022-10-15T10:51:03.702Z,19.13
2022-10-15T10:53:34.554Z,19.31
2022-10-15T10:56:07.680Z,19.36
2022-10-15T10:58:36.499Z,19.20
2022-10-15T11:01:05.334Z,19.23
2022-10-15T11:03:37.528Z,19.25
2022-10-15T11:06:28.885Z,19.19
2022-10-15T11:09:09.244Z,19.25
2022-10-15T11:11:49.392Z,19.47
2022-10-15T11:14:27.326Z,19.56
2022-10-15T11:17:03.858Z,19.60
2022-10-15T11:20:13.133Z,19.84
2022-10-15T11:22:48.764Z,19.88
2022-10-15T11:25:31.553Z,19.78
2022-10-15T11:28:17.121Z,19.78
2022-10-15T11:30:52.406Z,19.88
2022-10-15T11:33:33.738Z,20.06
2022-10-15T11:36:30.835Z,20.10
2022-10-15T11:39:13.916Z,20.15
2022-10-15T11:41:51.983Z,20.35
2022-10-15T11:44:33.343Z,20.41
2022-10-15T11:47:20.490Z,20.50
2022-10-15T11:49:57.507Z,20.66
2022-10-15T11:52:48.531Z,20.76
2022-10-15T11:55:23.004Z,20.59
2022-10-15T11:57:52.849Z,20.63
2022-10-15T12:00:36.619Z,20.57
2022-10-15T12:03:16.611Z,20.38
2022-10-15T12:05:50.767Z,20.26
2022-10-15T12:08:20.517Z,20.17
2022-10-15T12:11:03.919Z,20.15
2022-10-15T12:13:40.919Z,20.18
2022-10-15T12:16:18.862Z,20.13
2022-10-15T12:18:55.465Z,19.98
2022-10-15T12:21:36.015Z,19.88
2022-10-15T12:24:10.141Z,19.91
2022-10-15T12:26:38.791Z,19.86
2022-10-15T12:29:21.298Z,19.62
2022-10-15T12:31:52.978Z,19.66
2022-10-15T12:34:37.433Z,19.52
2022-10-15T12:37:15.841Z,19.40
2022-10-15T12:39:52.492Z,19.38
2022-10-15T12:42:27.208Z,19.55
2022-10-15T12:44:59.041Z,19.50
2022-10-15T12:47:49.619Z,19.53
2022-10-15T12:50:23.763Z,19.59
2022-10-15T12:53:01.384Z,19.58
2022-10-15T12:55:36.198Z,19.55
2022-10-15T12:58:31.347Z,19.30
2022-10-15T13:01:04.394Z,19.19
2022-10-15T13:03:39.163Z,19.15
2022-10-15T13:06:25.934Z,19.11
2022-10-15T13:09:01.018Z,19.11
2022-10-15T13:11:32.135Z,19.23
2022-10-15T13:14:13.282Z,19.33
2022-10-15T13:16:46.065Z,19.33
2022-10-15T13:19:20.309Z,19.32
2022-10-15T13:21:50.792Z,19.34
2022-10-15T13:24:22.447Z,19.47
2022-10-15T13:26:51.856Z,19.35
2022-10-15T13:29:23.255Z,19.24
2022-10-15T13:31:54.890Z,19.28
2022-10-15T13:34:29.794Z,19.40
2022-10-15T13:37:00.895Z,19.29
2022-10-15T13:42:14.003Z,19.21
2022-10-15T13:44:44.043Z,19.23
2022-10-15T13:47:27.802Z,19.22
2022-10-15T13:50:14.736Z,19.16
2022-10-15T13:52:46.272Z,19.06
2022-10-15T13:55:21.522Z,18.99
2022-10-15T13:57:56.372Z,18.90
2022-10-15T14:00:29.386Z,18.79
2022-10-15T14:03:24.997Z,18.82
2022-10-15T14:05:55.067Z,18.93
2022-10-15T14:08:27.915Z,18.89
2022-10-15T14:10:59.242Z,18.88
2022-10-15T14:13:28.956Z,18.97
2022-10-15T14:16:12.976Z,18.96
2022-10-15T14:18:48.251Z,18.91
2022-10-15T14:21:20.668Z,18.84
2022-10-15T14:23:50.453Z,18.80
2022-10-15T14:26:24.663Z,18.94
2022-10-15T14:28:55.510Z,18.98
2022-10-15T14:31:32.379Z,18.87
2022-10-15T14:34:01.662Z,19.03
2022-10-15T14:36:31.911Z,18.92
2022-10-15T14:39:34.472Z,18.79
2022-10-15T14:42:04.427Z,18.83
2022-10-15T14:44:43.508Z,18.81
2022-10-15T14:47:20.222Z,18.79
2022-10-15T14:49:51.795Z,18.70
2022-10-15T14:52:22.359Z,18.68
2022-10-15T14:55:01.465Z,18.52
2022-10-15T14:57:34.824Z,18.65
2022-10-15T15:00:12.669Z,18.79
2022-10-15T15:02:41.993Z,18.87
2022-10-15T15:05:21.859Z,18.74
2022-10-15T15:07:50.496Z,18.67
2022-10-15T15:10:19.837Z,18.64
2022-10-15T15:12:51.808Z,18.60
2022-10-15T15:15:22.717Z,18.70
2022-10-15T15:17:51.552Z,18.75
2022-10-15T15:20:21.899Z,18.64
2022-10-15T15:22:53.227Z,18.47
2022-10-15T15:25:27.390Z,18.45
2022-10-15T15:27:56.051Z,18.43
2022-10-15T15:30:26.253Z,18.50
2022-10-15T15:32:55.280Z,18.49
2022-10-15T15:35:27.711Z,18.61
2022-10-15T15:37:56.331Z,18.63
2022-10-15T15:40:25.484Z,18.54
2022-10-15T15:42:55.490Z,18.38
2022-10-15T15:45:25.949Z,18.38
2022-10-15T15:47:58.133Z,18.36
2022-10-15T15:50:27.227Z,18.30
2022-10-15T15:52:56.047Z,18.39
2022-10-15T15:55:25.521Z,18.27
2022-10-15T15:57:54.222Z,18.18
2022-10-15T16:00:24.300Z,18.19
2022-10-15T16:02:57.017Z,18.08
2022-10-15T16:05:27.436Z,17.98
2022-10-15T16:07:56.054Z,17.95
2022-10-15T16:10:26.144Z,17.91
2022-10-15T16:12:55.925Z,17.87
2022-10-15T16:15:24.786Z,17.86
2022-10-15T16:17:53.479Z,17.86
2022-10-15T16:20:23.334Z,17.97
2022-10-15T16:22:52.666Z,17.82
2022-10-15T16:25:22.525Z,17.73
2022-10-15T16:27:56.371Z,17.69
2022-10-15T16:30:24.993Z,17.78
2022-10-15T16:32:53.716Z,17.77
2022-10-15T16:35:23.121Z,17.89
2022-10-15T16:37:53.828Z,17.80
2022-10-15T16:40:23.151Z,17.68
2022-10-15T16:42:51.784Z,17.61
2022-10-15T16:45:20.845Z,17.53
2022-10-15T16:47:49.679Z,17.62
2022-10-15T16:50:19.551Z,17.82
2022-10-15T16:52:48.230Z,17.87
2022-10-15T16:55:17.194Z,17.73
2022-10-15T16:57:45.858Z,17.61
2022-10-15T17:00:15.441Z,17.59
2022-10-15T17:02:44.097Z,17.56
2022-10-15T17:05:12.726Z,17.58
2022-10-15T17:07:41.414Z,17.62
2022-10-15T17:10:14.015Z,17.62
2022-10-15T17:12:44.110Z,17.55
2022-10-15T17:15:13.109Z,17.53
2022-10-15T17:17:42.194Z,17.60
2022-10-15T17:20:12.713Z,17.61
2022-10-15T17:22:41.635Z,17.65
2022-10-15T17:25:11.038Z,17.72
2022-10-15T17:27:40.543Z,17.56
2022-10-15T17:30:11.371Z,17.41
2022-10-15T17:32:40.620Z,17.42
2022-10-15T17:35:10.128Z,17.50
2022-10-15T17:37:39.578Z,17.54
2022-10-15T17:40:11.449Z,17.50
2022-10-15T17:42:42.554Z,17.45
2022-10-15T17:45:12.540Z,17.38
2022-10-15T17:47:41.901Z,17.24
2022-10-15T17:50:14.831Z,17.30
2022-10-15T17:52:44.543Z,17.40
2022-10-15T17:55:13.482Z,17.26
2022-10-15T17:57:42.553Z,17.25
2022-10-15T18:00:14.002Z,17.35
2022-10-15T18:02:42.795Z,17.39
2022-10-15T18:05:11.589Z,17.37
2022-10-15T18:07:40.818Z,17.41
2022-10-15T18:10:12.803Z,17.40
2022-10-15T18:12:41.615Z,17.33
2022-10-15T18:15:11.939Z,17.26
2022-10-15T18:17:40.994Z,17.29
2022-10-15T18:20:11.177Z,17.31
2022-10-15T18:22:40.612Z,17.39
2022-10-15T18:25:10.928Z,17.41
2022-10-15T18:27:40.207Z,17.37
2022-10-15T18:30:11.794Z,17.20
2022-10-15T18:32:41.097Z,17.02
2022-10-15T18:35:11.766Z,16.99
2022-10-15T18:37:41.140Z,17.10
2022-10-15T18:40:12.241Z,17.10
2022-10-15T18:42:42.169Z,17.04
2022-10-15T18:45:13.055Z,17.12
2022-10-15T18:47:42.053Z,17.02
2022-10-15T18:50:12.631Z,17.10
2022-10-15T18:52:41.856Z,17.13
2022-10-15T18:55:11.809Z,17.07
2022-10-15T18:57:41.061Z,17.20
2022-10-15T19:00:12.592Z,17.30
2022-10-15T19:02:42.145Z,17.20
2022-10-15T19:05:11.556Z,17.05
2022-10-15T19:07:40.536Z,17.01
2022-10-15T19:10:10.734Z,17.04
2022-10-15T19:12:39.865Z,17.08
2022-10-15T19:15:11.074Z,17.03
2022-10-15T19:17:40.148Z,16.98
2022-10-15T19:20:10.903Z,16.88
2022-10-15T19:22:40.296Z,16.78
2022-10-15T19:25:09.965Z,16.70
2022-10-15T19:27:38.723Z,16.57
2022-10-15T19:30:09.147Z,16.73
2022-10-15T19:32:38.015Z,16.88
2022-10-15T19:35:08.709Z,16.95
2022-10-15T19:37:37.840Z,16.83
2022-10-15T19:40:10.788Z,16.90
2022-10-15T19:42:39.731Z,16.94
2022-10-15T19:45:10.810Z,17.12
2022-10-15T19:47:39.801Z,17.09
2022-10-15T19:50:09.306Z,17.12
2022-10-15T19:52:38.235Z,17.14
2022-10-15T19:55:08.992Z,17.17
2022-10-15T19:57:38.180Z,17.12
2022-10-15T20:00:09.406Z,17.09
2022-10-15T20:02:39.813Z,17.12
2022-10-15T20:05:09.992Z,17.21
2022-10-15T20:07:39.223Z,17.28
2022-10-15T20:10:09.839Z,17.32
2022-10-15T20:12:39.544Z,17.12
2022-10-15T20:15:10.414Z,16.99
2022-10-15T20:17:39.119Z,17.01
2022-10-15T20:20:08.464Z,17.03
2022-10-15T20:22:37.118Z,17.05
2022-10-15T20:25:06.414Z,17.19
2022-10-15T20:27:35.046Z,17.23
2022-10-15T20:30:05.408Z,17.22
2022-10-15T20:32:35.738Z,17.21
2022-10-15T20:35:06.613Z,17.12
2022-10-15T20:37:35.605Z,17.02
2022-10-15T20:40:05.658Z,17.06
2022-10-15T20:42:37.090Z,17.24
2022-10-15T20:45:07.766Z,17.31
2022-10-15T20:47:41.025Z,17.23
2022-10-15T20:50:16.221Z,17.16
2022-10-15T20:52:45.915Z,17.16
2022-10-15T20:55:15.234Z,17.12
2022-10-15T20:57:44.510Z,17.10
2022-10-15T21:00:16.183Z,17.02
2022-10-15T21:02:44.983Z,17.10
2022-10-15T21:05:13.862Z,17.20
2022-10-15T21:07:42.519Z,17.13
2022-10-15T21:10:11.437Z,17.12
2022-10-15T21:12:40.557Z,17.03
2022-10-15T21:15:10.878Z,16.93
2022-10-15T21:17:40.561Z,16.83
2022-10-15T21:20:12.267Z,16.71
2022-10-15T21:22:40.875Z,16.67
2022-10-15T21:25:10.007Z,16.80
2022-10-15T21:27:38.837Z,16.81
2022-10-15T21:30:09.782Z,16.97
2022-10-15T21:32:38.963Z,16.96
2022-10-15T21:35:08.789Z,16.93
2022-10-15T21:37:38.558Z,16.82
2022-10-15T21:40:11.437Z,16.74
2022-10-15T21:42:40.322Z,16.58
2022-10-15T21:45:11.467Z,16.45
2022-10-15T21:47:40.367Z,16.55
2022-10-15T21:50:10.626Z,16.59
2022-10-15T21:52:39.199Z,16.65
2022-10-15T21:55:10.444Z,16.84
2022-10-15T21:57:39.166Z,16.91
2022-10-15T22:00:15.330Z,17.02
2022-10-15T22:02:44.024Z,17.09
2022-10-15T22:05:15.893Z,16.93
2022-10-15T22:07:44.735Z,16.76
2022-10-15T22:10:14.264Z,16.60
2022-10-15T22:12:42.990Z,16.73
2022-10-15T22:15:12.265Z,16.90
2022-10-15T22:17:40.894Z,16.78
2022-10-15T22:20:10.527Z,16.64
2022-10-15T22:22:39.286Z,16.50
2022-10-15T22:25:10.356Z,16.40
2022-10-15T22:27:39.762Z,16.47
2022-10-15T22:30:10.153Z,16.60
2022-10-15T22:32:39.196Z,16.46
2022-10-15T22:35:09.080Z,16.29
2022-10-15T22:37:38.138Z,16.29
2022-10-15T22:40:07.978Z,16.27
2022-10-15T22:42:38.256Z,16.26
2022-10-15T22:45:09.015Z,16.37
2022-10-15T22:47:38.349Z,16.59
2022-10-15T22:50:08.794Z,16.62
2022-10-15T22:52:37.881Z,16.44
2022-10-15T22:55:07.647Z,16.41
2022-10-15T22:57:36.569Z,16.45
2022-10-15T23:00:06.778Z,16.41
2022-10-15T23:02:35.583Z,16.60
2022-10-15T23:05:04.479Z,16.62
2022-10-15T23:07:33.173Z,16.51
2022-10-15T23:10:02.332Z,16.47
2022-10-15T23:12:30.814Z,16.55
2022-10-15T23:14:59.808Z,16.56
2022-10-15T23:17:30.201Z,16.41
2022-10-15T23:19:58.976Z,16.39
2022-10-15T23:22:27.727Z,16.44
2022-10-15T23:24:56.502Z,16.43
2022-10-15T23:27:25.335Z,16.50
2022-10-15T23:30:07.336Z,16.61
2022-10-15T23:32:43.493Z,16.60
2022-10-15T23:35:13.068Z,16.45
2022-10-15T23:37:42.321Z,16.36
2022-10-15T23:40:12.341Z,16.36
2022-10-15T23:42:40.989Z,16.35
2022-10-15T23:45:10.759Z,16.32
2022-10-15T23:47:39.497Z,16.31
2022-10-15T23:50:09.411Z,16.22
2022-10-15T23:52:37.984Z,16.23
2022-10-15T23:55:07.549Z,16.29
2022-10-15T23:57:36.676Z,16.32
